"WATCHING THE WEATHER TO PROTECT LIFE AND PROPERTY"


Aviation
Satellite (InfraRed)


KFLL 252253Z 11012KT 10SM FEW032 FEW250 29/26 A3001 RMK AO2 SLP162 CB DSNT SW T02940256
KMCO 252253Z 06012KT 10SM FEW045 FEW110 FEW250 29/22 A3004 RMK AO2 SLP170 CB DSNT S TCU DSNT S T02940217
KMIA 252253Z 10013KT 10SM FEW028 FEW055 SCT250 29/24 A3002 RMK AO2 SLP165 CB DSNT SE AND NW T02940244
KTPA 252253Z 12004KT 10SM FEW020 SCT038 SCT090 BKN220 31/24 A3003 RMK AO2 LTG DSNT SW-NW SLP168 CB DSNT SE AND SW-NW SHRA DSNT SW-NW T03110239
MDPP 252300Z 09010KT 9999 SCT020 29/24 Q1015
MDSD 252300Z 05006KT 9999 TS FEW014CB SCT016 SCT300 25/24 Q1013 CB/E/SE/W
MKJS 252300Z 10007KT 9999 BKN018 FEW022CB 29/24 Q1012
MTPP 251900Z 10015KT 9999 FEW028CB 36/19 Q1011 A2986 RMK
MUHA 252342Z 11006KT 080V140 7000 -TSRA BKN012CB 28/25 Q1016 RMK CB OVER AD
MYNN 252300Z 10007KT 9999 SCT020CB 30/24 A3004 RMK CB/SCT ALQDS
TAPA 252300Z 10009KT 9999 FEW016CB SCT018 28/23 Q1014 NOSIG
TFFF 252330Z AUTO 08007KT 050V110 9999 SCT024 SCT029 BKN210 27/24 Q1012 NOSIG
TFFR 252330Z AUTO 09004KT CAVOK 27/23 Q1014 TEMPO 4000 SHRA SCT018TCU
TIST 252253Z 07007KT 10SM FEW030 FEW042 28/24 A2996 RMK AO2 SLP146 T02830244
TISX 252253Z 05007KT 10SM CLR 28/25 A2996 RMK AO2 RAB16E25 SLP145 P0000 T02780250
TJSJ 252256Z 18003KT 10SM FEW020 SCT043 BKN110 25/23 A2997 RMK AO2 RAB07E14 TSE32 SLP146 P0001 T02500233
TKPK 252300Z 04016KT 9999 FEW014CB SCT018 27/24 Q1014
TNCA 252300Z 08017KT 9999 FEW017 29/24 Q1009 NOSIG
TNCB 252255Z AUTO 09012KT 9999 FEW017/// 28/24 Q1010
TNCC 252258Z 10012KT 9999 FEW018 28/23 Q1010 NOSIG
TNCE 252255Z AUTO 06013KT 030V100 //// // ///////// 27/25 Q1014 RE//
TNCM 252300Z 08010KT 050V110 9999 SCT018 29/24 Q1014 NOSIG RMK A2996
TQPF 252300Z 07009KT 9999 FEW020 26/22 Q1015
TUPJ 252300Z 08004KT 10SM SCT019 28/24 A2997 RMK Q1015